« Back
NWS Peachtree City, Ga » Text Product » MCN Terminal Aerodrome Forecast


Printer-friendly Version
Current Version              Previous Versions:   1  2  3  4  5  6  7  8  9  

Terminal Aerodrome Forecast

235
FTUS42 KFFC 282324
TAFMCN
TAF
KMCN 282324Z 2900/2924 31008KT P6SM FEW150
     FM290300 34003KT P6SM FEW150
     FM291100 05004KT P6SM SCT250
     FM291500 10008KT P6SM SKC
     FM292000 15007KT P6SM SCT050=

USA.gov is the U.S. government's official web portal to all federal, state and local government web resources and services.